Atiramapattinam, India

2:59 PM IST on February 06, 2016 (GMT +0530)
Tiruchirappalli | | Change Station
CLOSE
Current Station
Airport
Location: Triuchirapalli,
Elevation: 289 ft
Nearby Weather Stations

Elev 289 ft 10.77 °N, 78.71 °E | Updated 29 minutes ago

Haze
Haze
90 °F
Feels Like 92 °F
N
10
Wind Variable Wind from ENE

Today
High -- | Low -- °F
--% Chance of Precip.
Yesterday
High -- | Low -- °F
Precip. -- in
Pressure 29.83 in
Visibility 2.5 miles
Clouds Few 1800 ft
Heat Index 92 °F
Dew Point 66 °F
Humidity 46%
Rainfall 0.00 in
Snow Depth Not available.
6:34 AM 6:18 PM
Waning Crescent, 6% visible
METAR VOTR 060900Z 06009KT 4000 HZ FEW018 32/19 Q1010 NOSIG
Pressure 29.83 in
Visibility 2.5 miles
Clouds Few 1800 ft
Heat Index 92 °F
Dew Point 66 °F
Humidity 46%
Rainfall 0.00 in
Snow Depth Not available.
6:34 AM 6:18 PM
Waning Crescent, 6% visible
METAR VOTR 060900Z 06009KT 4000 HZ FEW018 32/19 Q1010 NOSIG

10-Day Weather Forecast

No radar image for this location.
×

Almanac

Astronomy

Feb. 06, 2016 Rise Set
Actual Time
Civil Twilight
Nautical Twilight
Astronomical Twilight
Moon
Length of Visible Light
Length of Day
Tomorrow will be .
, % of the Moon is Illuminated

Today's Extremes

Country Highs Country Lows

Community

WunderPhotos

Upload Photos

1,890,933 photos uploaded!

WunderBlog® & News

Nearby

Air Quality

  Air Quality AQ Index Pollutant
Not available.

Snow Depth

Station Depth Elevation

Earthquake Activity

City Distance Mag. Time & Date
Minimum magnitude displayed is 2.5.

Coastal Water Temperatures

Place Temperature

Stations

Nearby Weather Stations

Station Location Temp. Windchill Dew Point Humidity Wind Precip. Elev Updated Type